Main page
METAR-TAF:

METAR-TAF

Airports :

Warsaw, Poland

Warsaw Chopin Airport

latitude: 52-10N, longitude: 020-58E, elevation: 106 m

Current weather observation

The report was made 16 minutes ago, at 20:00 UTC
Wind 7 kt from the West/Northwest
Temperature -2°C
Humidity 93%
Pressure 1027 hPa
Visibility: 7000 m
Broken clouds at a height of 500 ft

METAR: EPWA 182000Z 30007KT 7000 BKN005 M02/M03 Q1027 NOSIG

Time: 21:16 (20:16 UTC)

Forecast

The report was made 2 hours and 46 minutes ago, at 17:30 UTC
Forecast valid from 18 at 18 UTC to 19 at 18 UTC
Wind 6 kt from the North
Visibility: 8000 m
Broken clouds at a height of 700 ft
Probability 40% :
Temporary
from 18 at 18 UTC to 19 at 10 UTC
Visibility: 3000 m
Broken clouds at a height of 300 ft
mist
Becoming
from 19 at 08 UTC to 19 at 11 UTC
Scattered clouds at a height of 1500 ft

TAF: EPWA 181730Z 1818/1918 35006KT 8000 BKN007 PROB40 TEMPO 1818/1910 3000 BR BKN003 BECMG 1908/1911 SCT015

Weather observations and forecasts of more than 4000 airports (METAR and TAF reports).

The available stations are represented by yellow and red dots on the map.

Hover mouse over dot to see the name of the station.

Then click to see weather observations and forecasts.

To change the map : click on the green buttons with a black cross to zoom in, on the green button with a dash to zoom out, or on the green arrows for adjacent maps.


METAR-TAF: